createdAt,value
2023-02-24T00:01:37.678Z,13.23
2023-02-24T00:04:08.378Z,14.07
2023-02-24T00:06:41.007Z,13.68
2023-02-24T00:09:10.997Z,14.20
2023-02-24T00:11:43.542Z,12.73
2023-02-24T00:14:15.830Z,13.73
2023-02-24T00:16:45.054Z,12.38
2023-02-24T00:19:16.225Z,12.93
2023-02-24T00:21:44.927Z,12.38
2023-02-24T00:24:13.280Z,11.57
2023-02-24T00:26:41.505Z,11.98
2023-02-24T00:29:12.462Z,12.93
2023-02-24T00:31:42.937Z,13.20
2023-02-24T00:34:13.175Z,12.48
2023-02-24T00:36:41.585Z,13.10
2023-02-24T00:39:12.270Z,13.18
2023-02-24T00:41:42.341Z,13.27
2023-02-24T00:44:13.373Z,12.23
2023-02-24T00:46:44.592Z,13.55
2023-02-24T00:49:16.834Z,13.13
2023-02-24T00:51:48.459Z,13.23
2023-02-24T00:54:18.692Z,10.63
2023-02-24T00:56:47.996Z,14.30
2023-02-24T00:59:18.573Z,14.80
2023-02-24T01:01:49.805Z,15.15
2023-02-24T01:04:18.926Z,15.05
2023-02-24T01:06:48.407Z,16.00
2023-02-24T01:09:20.052Z,15.13
2023-02-24T01:12:08.016Z,15.63
2023-02-24T01:14:36.983Z,15.60
2023-02-24T01:17:08.705Z,16.35
2023-02-24T01:19:37.684Z,15.43
2023-02-24T01:22:07.573Z,15.55
2023-02-24T01:24:38.028Z,15.95
2023-02-24T01:27:08.176Z,16.50
2023-02-24T01:29:39.372Z,16.15
2023-02-24T01:32:16.805Z,16.48
2023-02-24T01:34:44.556Z,16.42
2023-02-24T01:37:16.192Z,16.98
2023-02-24T01:39:44.579Z,16.35
2023-02-24T01:42:16.343Z,17.15
2023-02-24T01:45:06.851Z,17.73
2023-02-24T01:47:38.613Z,17.20
2023-02-24T01:50:10.875Z,17.20
2023-02-24T01:52:39.853Z,17.83
2023-02-24T01:55:13.308Z,18.08
2023-02-24T01:57:46.048Z,17.60
2023-02-24T02:00:32.449Z,19.58
2023-02-24T02:03:07.899Z,17.98
2023-02-24T02:05:35.481Z,18.92
2023-02-24T02:08:05.901Z,19.13
2023-02-24T02:10:34.036Z,19.27
2023-02-24T02:13:04.497Z,18.60
2023-02-24T02:15:36.311Z,20.13
2023-02-24T02:18:12.607Z,18.33
2023-02-24T02:21:04.061Z,19.15
2023-02-24T02:23:57.883Z,20.75
2023-02-24T02:26:48.742Z,20.83
2023-02-24T02:29:47.553Z,18.70
2023-02-24T02:32:51.724Z,20.33
2023-02-24T02:35:24.156Z,19.08
2023-02-24T02:37:56.894Z,20.50
2023-02-24T02:40:29.136Z,17.60
2023-02-24T02:43:03.972Z,20.30
2023-02-24T02:45:40.132Z,19.92
2023-02-24T02:48:13.251Z,19.80
2023-02-24T02:50:49.723Z,20.10
2023-02-24T02:53:25.486Z,19.25
2023-02-24T02:55:57.874Z,20.95
2023-02-24T02:58:31.746Z,20.73
2023-02-24T03:01:02.585Z,19.83
2023-02-24T03:03:33.197Z,20.88
2023-02-24T03:06:07.424Z,20.13
2023-02-24T03:08:40.328Z,22.17
2023-02-24T03:11:10.533Z,15.07
2023-02-24T03:13:42.309Z,20.98
2023-02-24T03:16:12.550Z,21.50
2023-02-24T03:18:50.785Z,21.42
2023-02-24T03:21:30.651Z,19.70
2023-02-24T03:23:58.533Z,21.00
2023-02-24T03:26:30.430Z,22.08
2023-02-24T03:29:07.366Z,21.92
2023-02-24T03:31:43.589Z,21.48
2023-02-24T03:34:19.028Z,22.88
2023-02-24T03:36:48.992Z,22.38
2023-02-24T03:39:17.315Z,22.45
2023-02-24T03:41:59.911Z,22.30
2023-02-24T03:46:57.691Z,20.85
2023-02-24T03:49:25.602Z,21.73
2023-02-24T03:52:09.665Z,22.30
2023-02-24T03:54:52.674Z,21.77
2023-02-24T03:57:34.681Z,20.55
2023-02-24T04:00:22.393Z,20.02
2023-02-24T04:03:04.182Z,21.92
2023-02-24T04:05:37.517Z,22.00
2023-02-24T04:08:10.112Z,22.73
2023-02-24T04:10:42.185Z,22.80
2023-02-24T04:13:19.721Z,21.58
2023-02-24T04:15:57.295Z,19.88
2023-02-24T04:18:29.059Z,21.55
2023-02-24T04:21:00.174Z,22.08
2023-02-24T04:23:33.755Z,20.27
2023-02-24T04:26:02.941Z,20.35
2023-02-24T04:28:32.178Z,21.75
2023-02-24T04:31:05.873Z,22.17
2023-02-24T04:33:35.516Z,22.40
2023-02-24T04:36:03.195Z,22.20
2023-02-24T04:38:36.819Z,21.33
2023-02-24T04:41:05.214Z,20.15
2023-02-24T04:43:32.728Z,19.90
2023-02-24T04:46:00.328Z,19.85
2023-02-24T04:48:30.065Z,19.65
2023-02-24T04:51:02.414Z,20.38
2023-02-24T04:53:30.214Z,20.60
2023-02-24T04:56:08.219Z,19.60
2023-02-24T04:58:37.318Z,19.70
2023-02-24T05:01:10.435Z,20.00
2023-02-24T05:03:38.771Z,19.95
2023-02-24T05:06:08.572Z,20.88
2023-02-24T05:08:38.503Z,20.17
2023-02-24T05:11:08.324Z,22.35
2023-02-24T05:13:37.550Z,20.42
2023-02-24T05:16:07.505Z,22.08
2023-02-24T05:18:36.891Z,21.73
2023-02-24T05:21:25.372Z,22.42
2023-02-24T05:23:55.366Z,22.85
2023-02-24T05:26:25.662Z,24.40
2023-02-24T05:28:56.372Z,23.05
2023-02-24T05:31:27.057Z,22.70
2023-02-24T05:33:57.510Z,22.08
2023-02-24T05:36:26.516Z,23.13
2023-02-24T05:38:57.841Z,23.20
2023-02-24T05:41:32.350Z,21.77
2023-02-24T05:44:04.668Z,21.50
2023-02-24T05:46:34.362Z,22.98
2023-02-24T05:49:04.676Z,21.13
2023-02-24T05:51:35.409Z,22.23
2023-02-24T05:54:04.591Z,21.55
2023-02-24T05:56:34.824Z,21.90
2023-02-24T05:59:03.762Z,21.52
2023-02-24T06:01:32.958Z,21.58
2023-02-24T06:04:05.944Z,20.08
2023-02-24T06:06:38.042Z,20.70
2023-02-24T06:09:10.720Z,20.23
2023-02-24T06:11:41.632Z,20.35
2023-02-24T06:14:10.539Z,19.55
2023-02-24T06:16:40.699Z,19.92
2023-02-24T06:19:09.882Z,18.95
2023-02-24T06:21:41.052Z,20.13
2023-02-24T06:24:14.383Z,21.65
2023-02-24T06:26:43.998Z,22.52
2023-02-24T06:29:15.550Z,21.52
2023-02-24T06:31:44.124Z,21.10
2023-02-24T06:34:13.381Z,19.88
2023-02-24T06:36:43.061Z,21.17
2023-02-24T06:39:14.387Z,20.67
2023-02-24T06:41:43.643Z,21.33
2023-02-24T06:44:11.280Z,21.75
2023-02-24T06:46:38.812Z,24.58
2023-02-24T06:49:06.373Z,23.60
2023-02-24T06:51:33.987Z,25.00
2023-02-24T06:54:02.732Z,22.80
2023-02-24T06:56:32.335Z,23.52
2023-02-24T06:59:01.467Z,22.30
2023-02-24T07:01:29.820Z,23.45
2023-02-24T07:04:20.205Z,23.67
2023-02-24T07:06:52.092Z,22.80
2023-02-24T07:09:22.367Z,22.27
2023-02-24T07:11:52.208Z,21.08
2023-02-24T07:14:23.005Z,21.25
2023-02-24T07:16:54.216Z,23.33
2023-02-24T07:19:24.251Z,21.38
2023-02-24T07:21:52.687Z,21.58
2023-02-24T07:24:25.879Z,20.30
2023-02-24T07:26:58.079Z,19.85
2023-02-24T07:29:29.015Z,20.60
2023-02-24T07:32:01.421Z,20.17
2023-02-24T07:34:29.200Z,20.90
2023-02-24T07:36:57.769Z,21.50
2023-02-24T07:39:25.597Z,27.27
2023-02-24T07:41:55.444Z,22.80
2023-02-24T07:44:24.462Z,22.83
2023-02-24T07:46:54.259Z,20.83
2023-02-24T07:49:25.870Z,21.77
2023-02-24T07:51:57.700Z,20.95
2023-02-24T07:54:28.636Z,21.23
2023-02-24T07:56:59.049Z,20.95
2023-02-24T07:59:29.447Z,21.38
2023-02-24T08:01:58.574Z,21.77
2023-02-24T08:04:28.499Z,20.42
2023-02-24T08:06:57.429Z,21.17
2023-02-24T08:09:44.215Z,22.48
2023-02-24T08:12:13.711Z,20.17
2023-02-24T08:14:44.605Z,21.27
2023-02-24T08:17:19.746Z,20.83
2023-02-24T08:19:48.304Z,19.73
2023-02-24T08:22:21.078Z,20.00
2023-02-24T08:24:52.826Z,19.65
2023-02-24T08:27:22.343Z,20.45
2023-02-24T08:30:01.603Z,20.45
2023-02-24T08:32:34.575Z,21.52
2023-02-24T08:35:04.632Z,19.13
2023-02-24T08:37:39.595Z,19.95
2023-02-24T08:40:29.380Z,22.13
2023-02-24T08:42:58.571Z,20.88
2023-02-24T08:45:28.705Z,20.42
2023-02-24T08:48:01.497Z,19.95
2023-02-24T08:50:32.563Z,19.90
2023-02-24T08:53:01.018Z,20.15
2023-02-24T08:55:32.937Z,19.52
2023-02-24T08:58:01.644Z,18.85
2023-02-24T09:00:48.901Z,19.42
2023-02-24T09:03:28.821Z,18.67
2023-02-24T09:06:01.944Z,16.95
2023-02-24T09:08:33.511Z,17.92
2023-02-24T09:11:02.112Z,18.10
2023-02-24T09:13:32.963Z,18.77
2023-02-24T09:16:02.222Z,18.90
2023-02-24T09:18:38.315Z,18.75
2023-02-24T09:21:36.900Z,18.42
2023-02-24T09:24:07.660Z,18.95
2023-02-24T09:26:43.052Z,19.17
2023-02-24T09:29:32.824Z,18.38
2023-02-24T09:32:05.382Z,18.90
2023-02-24T09:34:36.401Z,13.50
2023-02-24T09:37:05.321Z,18.63
2023-02-24T09:39:55.400Z,18.42
2023-02-24T09:42:33.207Z,18.98
2023-02-24T09:45:04.315Z,18.77
2023-02-24T09:47:56.722Z,20.05
2023-02-24T09:51:02.546Z,19.08
2023-02-24T09:53:41.296Z,16.90
2023-02-24T09:56:22.042Z,17.38
2023-02-24T09:58:53.138Z,16.23
2023-02-24T10:01:42.642Z,16.67
2023-02-24T10:04:49.012Z,15.52
2023-02-24T10:07:25.312Z,15.23
2023-02-24T10:10:18.674Z,15.65
2023-02-24T10:12:51.082Z,11.27
2023-02-24T10:15:41.551Z,14.70
2023-02-24T10:18:28.273Z,13.23
2023-02-24T10:21:02.728Z,14.30
2023-02-24T10:23:46.435Z,14.40
2023-02-24T10:26:31.595Z,14.40
2023-02-24T10:29:08.961Z,12.02
2023-02-24T10:31:47.905Z,15.27
2023-02-24T10:34:25.440Z,12.73
2023-02-24T10:36:57.392Z,13.73
2023-02-24T10:39:27.010Z,13.75
2023-02-24T10:41:58.237Z,13.80
2023-02-24T10:44:35.928Z,14.15
2023-02-24T10:47:12.197Z,16.27
2023-02-24T10:49:56.704Z,14.80
2023-02-24T10:52:50.280Z,16.65
2023-02-24T10:55:29.111Z,15.95
2023-02-24T10:58:06.827Z,16.35
2023-02-24T11:01:12.461Z,16.48
2023-02-24T11:03:47.968Z,15.80
2023-02-24T11:06:52.519Z,14.82
2023-02-24T11:09:35.365Z,17.70
2023-02-24T11:12:33.099Z,18.87
2023-02-24T11:15:21.861Z,17.50
2023-02-24T11:17:53.367Z,19.00
2023-02-24T11:20:42.294Z,17.40
2023-02-24T11:23:18.732Z,16.38
2023-02-24T11:25:49.663Z,16.65
2023-02-24T11:28:37.674Z,16.90
2023-02-24T11:31:18.290Z,18.70
2023-02-24T11:33:52.390Z,17.77
2023-02-24T11:36:29.645Z,18.77
2023-02-24T11:39:18.755Z,18.38
2023-02-24T11:41:53.396Z,18.17
2023-02-24T11:44:29.018Z,19.23
2023-02-24T11:47:00.633Z,17.92
2023-02-24T11:49:36.985Z,17.60
2023-02-24T11:52:08.046Z,16.98
2023-02-24T11:54:40.066Z,17.00
2023-02-24T11:57:15.380Z,15.00
2023-02-24T11:59:50.037Z,17.00
2023-02-24T12:02:24.434Z,16.17
2023-02-24T12:05:00.760Z,16.58
2023-02-24T12:07:34.409Z,15.50
2023-02-24T12:10:16.625Z,16.05
2023-02-24T12:12:51.679Z,15.20
2023-02-24T12:15:25.596Z,16.58
2023-02-24T12:18:04.234Z,15.63
2023-02-24T12:20:37.014Z,16.45
2023-02-24T12:23:17.174Z,16.38
2023-02-24T12:26:06.667Z,15.90
2023-02-24T12:28:48.623Z,15.63
2023-02-24T12:31:29.190Z,16.60
2023-02-24T12:34:08.573Z,16.00
2023-02-24T12:37:11.250Z,17.70
2023-02-24T12:39:48.870Z,17.27
2023-02-24T12:42:26.678Z,17.90
2023-02-24T12:45:02.121Z,17.10
2023-02-24T12:47:43.872Z,16.40
2023-02-24T12:50:22.720Z,17.77
2023-02-24T12:53:01.378Z,18.20
2023-02-24T12:55:37.930Z,17.00
2023-02-24T12:58:12.825Z,18.13
2023-02-24T13:00:51.241Z,17.35
2023-02-24T13:03:33.709Z,17.73
2023-02-24T13:06:13.208Z,16.95
2023-02-24T13:08:50.733Z,17.15
2023-02-24T13:11:28.765Z,17.75
2023-02-24T13:14:00.549Z,17.05
2023-02-24T13:16:29.472Z,17.35
2023-02-24T13:19:07.794Z,15.68
2023-02-24T13:21:35.532Z,17.45
2023-02-24T13:24:03.922Z,15.73
2023-02-24T13:26:33.111Z,15.85
2023-02-24T13:29:03.273Z,16.50
2023-02-24T13:31:43.605Z,16.20
2023-02-24T13:34:30.980Z,17.17
2023-02-24T13:36:58.616Z,16.40
2023-02-24T13:39:34.250Z,17.58
2023-02-24T13:42:04.622Z,15.60
2023-02-24T13:44:32.877Z,15.45
2023-02-24T13:47:35.602Z,15.88
2023-02-24T13:50:19.659Z,16.48
2023-02-24T13:53:05.331Z,15.40
2023-02-24T13:55:47.843Z,16.45
2023-02-24T13:58:42.037Z,16.45
2023-02-24T14:01:12.293Z,16.27
2023-02-24T14:03:42.092Z,17.38
2023-02-24T14:06:19.106Z,16.95
2023-02-24T14:08:50.899Z,16.95
2023-02-24T14:11:21.730Z,17.10
2023-02-24T14:13:52.114Z,15.43
2023-02-24T14:16:23.801Z,15.57
2023-02-24T14:18:56.335Z,14.93
2023-02-24T14:21:27.561Z,15.80
2023-02-24T14:24:00.302Z,15.23
2023-02-24T14:26:28.726Z,10.77
2023-02-24T14:29:01.348Z,15.95
2023-02-24T14:31:31.209Z,15.43
2023-02-24T14:34:02.386Z,15.00
2023-02-24T14:36:34.211Z,14.68
2023-02-24T14:39:07.945Z,14.60
2023-02-24T14:41:35.590Z,14.93
2023-02-24T14:44:16.431Z,13.27
2023-02-24T14:46:48.676Z,12.77
2023-02-24T14:49:21.260Z,12.85
2023-02-24T14:51:54.834Z,11.67
2023-02-24T14:54:36.292Z,11.05
2023-02-24T14:57:04.596Z,12.23
2023-02-24T14:59:35.273Z,12.05
2023-02-24T15:02:05.404Z,11.80
2023-02-24T15:04:37.007Z,11.00
2023-02-24T15:07:08.549Z,11.48
2023-02-24T15:09:41.802Z,11.60
2023-02-24T15:12:13.679Z,12.48
2023-02-24T15:14:47.998Z,11.25
2023-02-24T15:17:19.144Z,11.30
2023-02-24T15:19:48.938Z,11.52
2023-02-24T15:22:25.259Z,11.57
2023-02-24T15:24:55.627Z,11.77
2023-02-24T15:27:28.775Z,12.13
2023-02-24T15:30:02.346Z,11.35
2023-02-24T15:32:33.592Z,12.80
2023-02-24T15:35:02.306Z,13.73
2023-02-24T15:37:38.812Z,12.10
2023-02-24T15:40:18.687Z,12.95
2023-02-24T15:42:51.456Z,11.20
2023-02-24T15:45:31.132Z,11.48
2023-02-24T15:48:01.432Z,11.40
2023-02-24T15:50:30.725Z,10.63
2023-02-24T15:53:04.569Z,11.63
2023-02-24T15:55:32.705Z,11.43
2023-02-24T15:58:03.006Z,11.02
2023-02-24T16:00:32.243Z,12.07
2023-02-24T16:02:59.980Z,11.35
2023-02-24T16:05:27.790Z,11.07
2023-02-24T16:07:55.717Z,10.73
2023-02-24T16:10:27.798Z,11.52
2023-02-24T16:12:57.388Z,10.93
2023-02-24T16:15:27.974Z,10.52
2023-02-24T16:17:56.320Z,10.18
2023-02-24T16:20:28.173Z,10.73
2023-02-24T16:22:57.204Z,11.20
2023-02-24T16:25:27.205Z,10.45
2023-02-24T16:27:57.306Z,10.45
2023-02-24T16:30:30.217Z,10.95
2023-02-24T16:32:58.602Z,10.38
2023-02-24T16:35:27.554Z,10.98
2023-02-24T16:37:55.488Z,11.48
2023-02-24T16:40:27.813Z,10.55
2023-02-24T16:42:55.414Z,11.82
2023-02-24T16:45:26.608Z,12.55
2023-02-24T16:47:56.459Z,13.05
2023-02-24T16:50:26.373Z,12.35
2023-02-24T16:52:53.949Z,12.02
2023-02-24T16:55:21.528Z,12.52
2023-02-24T16:57:50.477Z,12.85
2023-02-24T17:00:23.586Z,12.10
2023-02-24T17:02:52.573Z,12.57
2023-02-24T17:05:22.542Z,12.18
2023-02-24T17:07:51.818Z,12.65
2023-02-24T17:10:20.450Z,12.27
2023-02-24T17:12:48.259Z,11.88
2023-02-24T17:15:19.335Z,12.63
2023-02-24T17:17:47.200Z,11.93
2023-02-24T17:20:16.804Z,12.55
2023-02-24T17:22:45.003Z,11.65
2023-02-24T17:25:16.176Z,13.45
2023-02-24T17:27:43.991Z,13.73
2023-02-24T17:30:14.306Z,12.20
2023-02-24T17:32:43.287Z,13.48
2023-02-24T17:35:11.186Z,13.82
2023-02-24T17:37:38.829Z,13.73
2023-02-24T17:40:07.625Z,14.80
2023-02-24T17:42:35.613Z,13.48
2023-02-24T17:45:03.845Z,13.70
2023-02-24T17:47:31.715Z,13.95
2023-02-24T17:50:00.650Z,13.35
2023-02-24T17:52:29.510Z,13.30
2023-02-24T17:54:58.788Z,13.68
2023-02-24T17:57:27.038Z,13.13
2023-02-24T17:59:54.611Z,15.68
2023-02-24T18:02:23.993Z,13.00
2023-02-24T18:04:51.713Z,12.82
2023-02-24T18:07:21.193Z,13.20
2023-02-24T18:09:48.941Z,13.50
2023-02-24T18:12:18.459Z,13.52
2023-02-24T18:14:48.393Z,13.50
2023-02-24T18:17:17.239Z,13.25
2023-02-24T18:19:44.821Z,13.32
2023-02-24T18:22:12.793Z,13.50
2023-02-24T18:24:41.832Z,13.98
2023-02-24T18:27:09.480Z,13.23
2023-02-24T18:29:37.080Z,13.27
2023-02-24T18:32:05.242Z,13.70
2023-02-24T18:34:33.069Z,13.55
2023-02-24T18:37:01.302Z,15.43
2023-02-24T18:39:29.580Z,14.18
2023-02-24T18:41:59.572Z,14.45
2023-02-24T18:44:28.360Z,13.70
2023-02-24T18:46:55.987Z,13.43
2023-02-24T18:49:23.753Z,15.02
2023-02-24T18:51:51.359Z,15.32
2023-02-24T18:54:19.462Z,13.30
2023-02-24T18:56:47.035Z,13.68
2023-02-24T18:59:15.942Z,14.25
2023-02-24T19:01:43.601Z,13.60
2023-02-24T19:04:17.632Z,14.25
2023-02-24T19:06:48.960Z,14.38
2023-02-24T19:09:21.367Z,14.32
2023-02-24T19:11:49.865Z,13.80
2023-02-24T19:14:18.815Z,13.55
2023-02-24T19:16:46.393Z,14.07
2023-02-24T19:19:16.270Z,13.85
2023-02-24T19:21:45.320Z,13.88
2023-02-24T19:24:13.663Z,13.80
2023-02-24T19:26:42.680Z,15.52
2023-02-24T19:29:10.893Z,14.10
2023-02-24T19:31:40.167Z,13.82
2023-02-24T19:34:11.112Z,13.73
2023-02-24T19:36:39.088Z,13.90
2023-02-24T19:39:10.305Z,13.77
2023-02-24T19:41:38.362Z,13.52
2023-02-24T19:44:06.492Z,13.65
2023-02-24T19:46:34.297Z,12.70
2023-02-24T19:49:03.593Z,13.57
2023-02-24T19:51:31.791Z,12.35
2023-02-24T19:54:02.618Z,15.20
2023-02-24T19:56:32.045Z,12.43
2023-02-24T19:59:01.271Z,11.88
2023-02-24T20:01:30.987Z,12.35
2023-02-24T20:04:00.277Z,12.68
2023-02-24T20:06:31.909Z,12.00
2023-02-24T20:09:00.010Z,12.18
2023-02-24T20:11:28.696Z,12.27
2023-02-24T20:13:56.655Z,11.85
2023-02-24T20:16:26.358Z,11.65
2023-02-24T20:18:55.518Z,11.80
2023-02-24T20:21:23.358Z,10.85
2023-02-24T20:23:52.425Z,11.05
2023-02-24T20:26:20.604Z,10.98
2023-02-24T20:28:48.873Z,11.05
2023-02-24T20:39:40.775Z,11.15
2023-02-24T20:42:08.427Z,10.20
2023-02-24T20:44:36.057Z,11.20
2023-02-24T20:47:03.645Z,10.52
2023-02-24T20:49:31.185Z,10.75
2023-02-24T20:51:58.787Z,10.52
2023-02-24T20:54:26.893Z,11.20
2023-02-24T20:56:55.905Z,11.60
2023-02-24T20:59:23.598Z,12.45
2023-02-24T21:01:51.813Z,12.13
2023-02-24T21:04:21.942Z,11.90
2023-02-24T21:11:49.984Z,3.33
2023-02-24T21:14:19.194Z,1.60
2023-02-24T21:16:46.930Z,1.77
2023-02-24T21:19:14.583Z,1.67
2023-02-24T21:21:42.105Z,1.60
2023-02-24T21:24:09.875Z,1.25
2023-02-24T21:26:37.442Z,1.70
2023-02-24T21:29:05.023Z,1.70
2023-02-24T21:31:34.089Z,2.53
2023-02-24T21:34:01.707Z,1.92
2023-02-24T21:36:29.339Z,2.22
2023-02-24T21:38:56.991Z,1.85
2023-02-24T21:41:24.931Z,1.98
2023-02-24T21:43:54.659Z,1.83
2023-02-24T21:46:22.821Z,2.53
2023-02-24T21:48:56.135Z,2.38
2023-02-24T21:51:24.788Z,2.88
2023-02-24T21:53:54.790Z,2.47
2023-02-24T21:56:24.583Z,2.90
2023-02-24T21:58:54.600Z,3.10
2023-02-24T22:01:25.111Z,2.72
2023-02-24T22:03:55.664Z,3.13
2023-02-24T22:06:23.992Z,2.45
2023-02-24T22:08:51.681Z,2.08
2023-02-24T22:11:20.108Z,2.60
2023-02-24T22:13:48.138Z,2.05
2023-02-24T22:16:18.023Z,2.30
2023-02-24T22:18:46.293Z,2.92
2023-02-24T22:21:18.239Z,2.58
2023-02-24T22:23:46.683Z,1.85
2023-02-24T22:26:14.849Z,2.30
2023-02-24T22:28:44.564Z,2.40
2023-02-24T22:31:13.714Z,2.50
2023-02-24T22:33:43.328Z,2.42
2023-02-24T22:36:14.062Z,2.20
2023-02-24T22:38:45.465Z,2.30
2023-02-24T22:41:15.370Z,2.40
2023-02-24T22:43:43.058Z,2.03
2023-02-24T22:46:14.211Z,2.83
2023-02-24T22:48:42.074Z,2.53
2023-02-24T22:51:11.866Z,3.33
2023-02-24T22:53:42.255Z,3.00
2023-02-24T22:56:12.828Z,2.88
2023-02-24T22:58:40.936Z,2.53
2023-02-24T23:01:10.407Z,2.17
2023-02-24T23:03:38.190Z,2.15
2023-02-24T23:06:08.235Z,2.10
2023-02-24T23:08:39.218Z,1.90
2023-02-24T23:11:09.105Z,1.55
2023-02-24T23:13:38.202Z,1.63
2023-02-24T23:16:08.304Z,2.10
2023-02-24T23:18:36.859Z,1.92
2023-02-24T23:21:07.932Z,1.73
2023-02-24T23:23:36.545Z,1.95
2023-02-24T23:26:04.388Z,2.10
2023-02-24T23:28:31.959Z,1.90
2023-02-24T23:31:00.884Z,1.60
2023-02-24T23:33:28.484Z,1.55
2023-02-24T23:35:56.209Z,1.98
2023-02-24T23:38:23.707Z,1.98
2023-02-24T23:40:51.851Z,2.30
2023-02-24T23:43:19.652Z,2.65
2023-02-24T23:45:47.245Z,2.08
2023-02-24T23:48:16.131Z,1.83
2023-02-24T23:50:45.902Z,2.00
2023-02-24T23:53:13.472Z,1.75
2023-02-24T23:55:41.868Z,2.00
2023-02-24T23:58:09.428Z,2.25
